Wednesday, June 20, 2018, 10:50 AM EDT
Back to Local

KMPV, Knapp State Airport

Location: Barre, VT, United States Lat: 44.2
Local Time: 10:50 AM EDT (14:50 GMT) Lon: -72.567
Time Zone: US/Eastern Elev: 1164 ft

Show me the last for .
Show Decoded

2018-06-20 09:51 METAR KMPV 201351Z AUTO 00000KT 10SM CLR 21/12 A2992 RMK AO2 SLP130 T02060122 =
2018-06-20 08:51 METAR KMPV 201251Z AUTO 06003KT 10SM CLR 17/13 A2994 RMK AO2 SLP137 T01670128 =
2018-06-20 07:51 METAR KMPV 201151Z AUTO 00000KT 10SM CLR 10/10 A2996 RMK AO2 SLP147 T01000100
                 10100 20061 53003 =
2018-06-20 07:31 METAR KMPV 201131Z AUTO 00000KT 9SM SCT001 10/10 A2996 RMK AO2 T01000100 =
2018-06-20 07:28 METAR KMPV 201128Z AUTO 00000KT 2SM BR BKN001 10/10 A2996 RMK AO2 T01000100 =
2018-06-20 07:12 METAR KMPV 201112Z AUTO 00000KT 1/4SM FG VV001 09/09 A2996 RMK AO2 T00890089 =
2018-06-20 07:03 METAR KMPV 201103Z AUTO 08003KT 1 3/4SM BR SCT001 09/09 A2996 RMK AO2 VIS 1/2V5
                 T00890089 =
2018-06-20 07:01 METAR KMPV 201101Z AUTO 07003KT 4SM BR SCT001 09/09 A2996 RMK AO2 T00890089 =
2018-06-20 06:54 METAR KMPV 201054Z AUTO 07003KT 1 1/2SM BR SCT001 09/09 A2996 RMK AO2 T00940094
                 =
2018-06-20 06:51 METAR KMPV 201051Z AUTO 07003KT 1/2SM FG VV001 09/09 A2996 RMK AO2 SLP146
                 T00940094 =
2018-06-20 05:51 METAR KMPV 200951Z AUTO 00000KT 3/4SM BR VV001 07/07 A2995 RMK AO2 VIS 1/4V5
                 SLP143 T00720072 =
2018-06-20 05:48 METAR KMPV 200948Z AUTO 00000KT 1 3/4SM BR SCT001 07/07 A2995 RMK AO2 =
2018-06-20 05:35 METAR KMPV 200935Z AUTO 00000KT 9SM SCT001 07/07 A2995 RMK AO2 T00720072 =
2018-06-20 05:31 METAR KMPV 200931Z AUTO 00000KT 2SM BR BKN001 07/07 A2995 RMK AO2 T00670067 =
2018-06-20 05:27 METAR KMPV 200927Z AUTO 00000KT 1 1/4SM BR BKN001 07/07 A2995 RMK AO2 VIS 1/2V5
                 T00670067 =
2018-06-20 05:08 METAR KMPV 200908Z AUTO 00000KT 1/4SM FG VV001 07/07 A2995 RMK AO2 T00720072 =
2018-06-20 05:01 METAR KMPV 200901Z AUTO 00000KT 1SM BR VV001 06/06 A2995 RMK AO2 T00610061 =
2018-06-20 04:59 METAR KMPV 200859Z AUTO 00000KT 2SM BR SCT001 06/06 A2995 RMK AO2 T00610061 =
2018-06-20 04:51 METAR KMPV 200851Z AUTO 00000KT 10SM CLR 07/07 A2995 RMK AO2 SLP144 T00720072
                 55000 =
2018-06-20 04:25 METAR KMPV 200825Z AUTO 00000KT 10SM FEW001 08/08 A2995 RMK AO2 T00780078 =
2018-06-20 03:51 METAR KMPV 200751Z AUTO 00000KT 10SM CLR 08/08 A2994 RMK AO2 SLP142 T00780078 =
2018-06-20 02:51 METAR KMPV 200651Z AUTO 00000KT 10SM CLR 09/08 A2995 RMK AO2 SLP144 T00890083 =
2018-06-20 01:51 METAR KMPV 200551Z AUTO 00000KT 10SM CLR 09/08 A2995 RMK AO2 SLP145 T00940083
                 10183 20089 58005 =
2018-06-20 00:51 METAR KMPV 200451Z AUTO 18003KT 10SM CLR 10/08 A2997 RMK AO2 SLP149 T01000083
                 402110100 =
2018-06-19 23:51 METAR KMPV 200351Z AUTO 23003KT 10SM CLR 11/08 A2996 RMK AO2 SLP148 T01060083 =
2018-06-19 22:51 METAR KMPV 200251Z AUTO 19003KT 10SM CLR 12/09 A2997 RMK AO2 SLP150 T01170089
                 51014 =
2018-06-19 21:51 METAR KMPV 200151Z AUTO 21004KT 10SM CLR 14/10 A2996 RMK AO2 SLP148 T01390100 =
2018-06-19 20:51 METAR KMPV 200051Z AUTO 00000KT 10SM CLR 16/11 A2995 RMK AO2 SLP140 T01610106 =
2018-06-19 19:51 METAR KMPV 192351Z AUTO 32007KT 10SM CLR 18/11 A2993 RMK AO2 SLP134 T01830106
                 10211 20183 53004 =
2018-06-19 18:51 METAR KMPV 192251Z AUTO 31010KT 10SM CLR 19/10 A2992 RMK AO2 SLP131 T01940100 =
2018-06-19 17:51 METAR KMPV 192151Z AUTO 32010G17KT 10SM CLR 20/10 A2992 RMK AO2 SLP128 T02000100
                 =
2018-06-19 16:51 METAR KMPV 192051Z AUTO 34009KT 10SM CLR 21/10 A2991 RMK AO2 SLP127 T02060100
                 53002 =
2018-06-19 15:51 METAR KMPV 191951Z AUTO 34012KT 10SM CLR 21/11 A2991 RMK AO2 SLP125 T02110106 =
2018-06-19 14:51 METAR KMPV 191851Z AUTO 32010G16KT 10SM CLR 21/11 A2990 RMK AO2 SLP123 T02060106
                 =
2018-06-19 13:51 METAR KMPV 191751Z AUTO 30008KT 10SM FEW035 19/11 A2991 RMK AO2 SLP125 T01940111
                 10194 20144 58006 =
2018-06-19 12:51 METAR KMPV 191651Z AUTO 32011G17KT 10SM FEW032 18/11 A2992 RMK AO2 SLP129
                 T01830111 =
2018-06-19 11:51 METAR KMPV 191551Z AUTO 31008G16KT 10SM CLR 17/11 A2993 RMK AO2 SLP132 T01670111
                 =
2018-06-19 11:22 METAR KMPV 191522Z AUTO 32013G19KT 10SM SCT029 17/12 A2993 RMK AO2 T01670117 =
2018-06-19 10:51 METAR KMPV 191451Z AUTO 32010G16KT 10SM BKN026 OVC032 16/11 A2993 RMK AO2 SLP133
                 T01560111 51019 =

Support USWX by starting your Amazon purchase here.